Flight Track Log - Related Links

Times and Time Zones

All times are in EST time to prevent confusion due to time zone crossing. See the AVN11 flight status page for this flight to view local times or setup timezone preferences in your user account.

Time Position Orientation Groundspeed Altitude Reporting Facility
EST Latitude Longitude Course Direction KTS MPH feet Rate Location/Type
Sun 07:56:34 PM -33.9622 151.1916 168° South 135 155  Level FlightAware ADS-B (YSSY / SYD)
Sun 07:56:54 PM -33.9765 151.1953 168° South 150 173 300 1,455 Climbing FlightAware ADS-B (YSSY / SYD)
Sun 07:56:54 PM -33.9937 151.2256 296° West 8,600 2,308 Climbing Aus ATC (Calculated)
Sun 07:57:07 PM -33.9840 151.2017 168° South 160 184 800 -20,455 Descending FlightAware ADS-B
Sun 07:57:16 PM -33.9869 151.2090 115° Southeast 160 184 1,100 1,667 Climbing FlightAware ADS-B (KCLL)
Sun 07:57:25 PM -33.9901 151.2173 115° Southeast 161 185 1,300 1,500 Climbing FlightAware ADS-B
Sun 07:57:28 PM -33.9909 151.2194 116° Southeast 170 196 1,400 2,182 Climbing FlightAware ADS-B
Sun 07:57:36 PM -33.9940 151.2264 119° Southeast 186 214 1,700 1,154 Climbing FlightAware ADS-B
Sun 07:57:54 PM -34.0042 151.2420 128° Southeast 195 224 1,900 923 Climbing FlightAware ADS-B (KCLL)
Sun 07:58:02 PM -34.0101 151.2481 139° Southeast 215 247 2,100 1,920 Climbing FlightAware ADS-B
Sun 07:58:19 PM -34.0226 151.2601 141° Southeast 218 251 2,700 1,875 Climbing FlightAware ADS-B
Sun 07:58:34 PM -34.0226 151.2601 141° Southeast 231 266 3,100 1,297 Climbing FlightAware ADS-B
Sun 07:58:56 PM -34.0549 151.2916 141° Southeast 258 297 3,500 1,024 Climbing FlightAware ADS-B (KCLL)
Sun 07:59:15 PM -34.0741 151.3105 141° Southeast 291 335 3,800 1,029 Climbing FlightAware ADS-B (KCLL)
Sun 07:59:31 PM -34.0917 151.3278 141° Southeast 314 361 4,100 1,784 Climbing FlightAware ADS-B
Sun 07:59:52 PM -34.1096 151.3456 140° Southeast 321 369 4,900 2,640 Climbing FlightAware ADS-B
Sun 07:59:56 PM -34.1184 151.3575 132° Southeast 316 364 5,200 4,200 Climbing FlightAware ADS-B (KCLL)
Sun 08:00:12 PM -34.1262 151.3812 112° Southeast 302 348 6,300 4,421 Climbing FlightAware ADS-B
Sun 08:00:15 PM -34.1268 151.3888 95° East 299 344 6,600 3,130 Climbing FlightAware ADS-B (KCLL)
Sun 08:00:35 PM -34.1198 151.4200 75° East 300 345 7,500 2,483 Climbing FlightAware ADS-B (KCLL)
Sun 08:00:44 PM -34.1132 151.4303 52° Northeast 304 350 7,800 1,800 Climbing FlightAware ADS-B
Sun 08:00:55 PM -34.0990 151.4434 37° Northeast 312 359 8,100 1,667 Climbing FlightAware ADS-B (KCLL)
Sun 08:01:02 PM -34.0899 151.4484 24° Northeast 318 366 8,300 3,231 Climbing FlightAware ADS-B (YRAY)
Sun 08:01:08 PM -34.0815 151.4527 23° Northeast 320 368 8,800 2,571 Climbing FlightAware ADS-B
Sun 08:01:23 PM -34.0717 151.4575 22° Northeast 320 368 9,200 2,118 Climbing FlightAware ADS-B
Sun 08:01:42 PM -34.0344 151.4752 22° Northeast 324 373 10,000 2,800 Climbing FlightAware ADS-B (YRAY)
Sun 08:01:53 PM -34.0184 151.4829 22° Northeast 324 373 10,600 2,553 Climbing FlightAware ADS-B
Sun 08:02:29 PM -33.9679 151.5080 22° Northeast 328 377 12,000 1,857 Climbing Aus ATC (RADAR)
Sun 08:02:35 PM -33.9627 151.5102 22° Northeast 344 396 11,900 792 Descending FlightAware ADS-B
Sun 08:03:22 PM -33.8862 151.5476 22° Northeast 391 450 12,700 1,215 Climbing FlightAware ADS-B
Sun 08:03:54 PM -33.8333 151.5738 22° Northeast 411 473 13,500 1,833 Climbing FlightAware ADS-B
Sun 08:04:34 PM -33.7600 151.6156 25° Northeast 418 481 14,900 2,172 Climbing FlightAware ADS-B
Sun 08:04:52 PM -33.7344 151.6416 40° Northeast 412 474 15,600 2,300 Climbing FlightAware ADS-B (KCLL)
Sun 08:05:34 PM -33.6748 151.7029 41° Northeast 423 487 17,200 2,195 Climbing FlightAware ADS-B
Sun 08:06:14 PM -33.6129 151.7699 42° Northeast 429 494 18,600 2,240 Climbing FlightAware ADS-B
Sun 08:06:49 PM -33.5623 151.8266 42° Northeast 431 496 20,000 2,280 Climbing Aus ATC (RADAR)
Sun 08:07:04 PM -33.5397 151.8511 42° Northeast 436 502 20,500 1,200 Climbing Aus ATC (RADAR)
Sun 08:07:09 PM -33.5319 151.8589 42° Northeast 440 506 20,400 1,886 Descending FlightAware ADS-B (KCLL)
Sun 08:07:39 PM -33.4867 151.9087 42° Northeast 442 509 21,600 2,100 Climbing Aus ATC (RADAR)
Sun 08:08:29 PM -33.4106 151.9913 42° Northeast 447 514 23,200 1,574 Climbing Aus ATC (RADAR)
Sun 08:08:40 PM -33.3931 152.0097 42° Northeast 440 506 23,200 1,019 Level FlightAware ADS-B (KCLL)
Sun 08:09:22 PM -33.3289 152.0791 42° Northeast 463 533 24,100 1,304 Climbing FlightAware ADS-B
Sun 08:09:26 PM -33.3216 152.0870 42° Northeast 459 528 24,200 1,875 Climbing FlightAware ADS-B (KCLL)
Sun 08:09:54 PM -33.2765 152.1366 42° Northeast 469 540 25,100 1,585 Climbing Aus ATC (RADAR)
Sun 08:10:19 PM -33.2359 152.1801 42° Northeast 473 544 25,600 933 Climbing Aus ATC (RADAR)
Sun 08:10:39 PM -33.2026 152.2147 42° Northeast 480 552 25,800 1,385 Climbing FlightAware ADS-B (KCLL)
Sun 08:12:16 PM -33.0404 152.3885 42° Northeast 483 556 28,300 1,574 Climbing Aus ATC (RADAR)
Sun 08:12:41 PM -32.9992 152.4336 43° Northeast 480 552 29,000 1,714 Climbing Aus ATC (RADAR)
Sun 08:13:19 PM -32.9357 152.5019 42° Northeast 482 555 30,100 1,714 Climbing Aus ATC (RADAR)
Sun 08:13:58 PM -32.8704 152.5719 42° Northeast 476 548 31,200 1,412 Climbing Aus ATC (RADAR)
Sun 08:14:27 PM -32.8235 152.6206 42° Northeast 474 545 31,700 1,373 Climbing FlightAware ADS-B (KCLL)
Sun 08:15:21 PM -32.7374 152.7118 42° Northeast 463 533 33,100 1,407 Climbing Aus ATC (RADAR)
Sun 08:15:48 PM -32.6911 152.7604 41° Northeast 471 542 33,600 1,009 Climbing Aus ATC (RADAR)
Sun 08:17:08 PM -32.5608 152.8980 42° Northeast 473 544 34,900 947 Climbing Aus ATC (RADAR)
Sun 08:17:23 PM -32.5361 152.9238 41° Northeast 474 545 35,100 906 Climbing Aus ATC (RADAR)
Sun 08:18:01 PM -32.4765 152.9866 42° Northeast 464 534 35,700 847 Climbing Aus ATC (RADAR)
Sun 08:18:48 PM -32.3969 153.0698 41° Northeast 476 548 36,300 1,000 Climbing Aus ATC (RADAR)
Sun 08:19:25 PM -32.3377 153.1324 42° Northeast 460 529 37,100 635 Climbing Aus ATC (RADAR)
Sun 08:20:13 PM -32.2590 153.2141 41° Northeast 470 541 37,200 82 Climbing Aus ATC (RADAR)
Sun 08:20:38 PM -32.2185 153.2566 42° Northeast 470 541 37,200  Level Aus ATC (RADAR)
Sun 08:21:13 PM -32.1618 153.3160 42° Northeast 470 541 37,200  Level Aus ATC (RADAR)
Sun 08:22:18 PM -32.0561 153.4256 41° Northeast 471 542 37,200  Level Aus ATC (RADAR)
Sun 08:22:43 PM -32.0154 153.4676 41° Northeast 470 541 37,200  Level Aus ATC (RADAR)
Sun 08:23:20 PM -31.9559 153.5288 41° Northeast 456 525 37,200  Level Aus ATC (RADAR)
Sun 08:24:10 PM -31.8749 153.6126 41° Northeast 456 525 37,200  Level Aus ATC (RADAR)
Sun 08:24:47 PM -31.8125 153.6764 41° Northeast 469 540 37,200  Level Aus ATC (RADAR)
Sun 08:25:32 PM -31.7394 153.7519 41° Northeast 470 541 37,200  Level Aus ATC (RADAR)
Sun 08:25:57 PM -31.6986 153.7936 41° Northeast 470 541 37,200  Level Aus ATC (RADAR)
Sun 08:27:05 PM -31.5893 153.9054 41° Northeast 459 528 37,200  Level Aus ATC (RADAR)
Sun 08:27:30 PM -31.5484 153.9471 41° Northeast 458 527 37,200  Level Aus ATC (RADAR)
Sun 08:27:57 PM -31.5021 153.9946 41° Northeast 472 543 37,200  Level Aus ATC (RADAR)
Sun 08:28:32 PM -31.4448 154.0529 41° Northeast 472 543 37,200  Level Aus ATC (RADAR)
Sun 08:29:17 PM -31.3709 154.1282 41° Northeast 473 544 37,200  Level Aus ATC (RADAR)
Sun 08:29:52 PM -31.3135 154.1863 41° Northeast 472 543 37,200  Level Aus ATC (RADAR)
Sun 08:30:27 PM -31.2562 154.2444 41° Northeast 470 541 37,200  Level Aus ATC (RADAR)
Sun 08:31:09 PM -31.1874 154.3137 41° Northeast 456 525 37,200  Level Aus ATC (RADAR)
Sun 08:32:27 PM -31.0586 154.4437 41° Northeast 473 544 37,200  Level Aus ATC (RADAR)
Sun 08:32:54 PM -31.0142 154.4876 40° Northeast 458 527 37,200  Level Aus ATC (RADAR)
Sun 08:33:29 PM -30.9565 154.5459 41° Northeast 458 527 37,200  Level Aus ATC (RADAR)
Sun 08:34:14 PM -30.8805 154.6209 40° Northeast 461 531 37,200  Level Aus ATC (RADAR)
Sun 08:34:49 PM -30.8228 154.6789 41° Northeast 459 528 37,200  Level Aus ATC (RADAR)
Sun 08:35:27 PM -30.7613 154.7418 41° Northeast 472 543 37,200  Level Aus ATC (RADAR)
Sun 08:36:14 PM -30.6828 154.8192 40° Northeast 456 525 37,200  Level Aus ATC (RADAR)
Sun 08:37:46 PM -30.5299 154.9719 41° Northeast 471 542 37,200  Level Aus ATC (RADAR)
Sun 08:38:13 PM -30.4850 155.0159 40° Northeast 455 524 37,200  Level Aus ATC (RADAR)
Sun 08:38:49 PM -30.4280 155.0731 41° Northeast 454 522 37,200  Level Aus ATC (RADAR)
Sun 08:39:29 PM -30.3605 155.1389 40° Northeast 459 528 37,200  Level Aus ATC (RADAR)
Sun 08:40:04 PM -30.3025 155.1965 41° Northeast 457 526 37,200  Level Aus ATC (RADAR)
Sun 08:40:54 PM -30.2181 155.2789 40° Northeast 460 529 37,200  Level Aus ATC (RADAR)
Sun 08:41:19 PM -30.1761 155.3201 40° Northeast 461 531 37,200  Level Aus ATC (RADAR)
Sun 08:42:28 PM -30.0591 155.4355 40° Northeast 460 529 37,200  Level Aus ATC (RADAR)
Sun 08:42:53 PM -30.0176 155.4763 40° Northeast 458 527 37,200  Level Aus ATC (RADAR)
Sun 08:43:28 PM -29.9585 155.5336 40° Northeast 459 528 37,200  Level Aus ATC (RADAR)
Sun 08:44:13 PM -29.8831 155.6067 40° Northeast 458 527 37,200  Level Aus ATC (RADAR)
Sun 08:44:53 PM -29.8159 155.6718 40° Northeast 458 527 37,200  Level Aus ATC (RADAR)
Sun 08:45:36 PM -29.7442 155.7422 40° Northeast 471 542 37,200  Level Aus ATC (RADAR)
Sun 08:46:01 PM -29.7027 155.7825 40° Northeast 470 541 37,200  Level Aus ATC (RADAR)
Sun 08:46:41 PM -29.6362 155.8467 40° Northeast 469 540 37,200 -61 Level Aus ATC (RADAR)
Sun 08:47:40 PM -29.5372 155.9427 40° Northeast 465 535 37,100  Descending Aus ATC (RADAR)
Sun 08:47:55 PM -29.5127 155.9664 40° Northeast 465 535 37,200  Climbing Aus ATC (RADAR)
Sun 08:48:31 PM -29.4548 156.0219 40° Northeast 464 534 37,100  Descending Aus ATC (RADAR)
Sun 08:49:16 PM -29.3805 156.0933 40° Northeast 464 534 37,200 76 Climbing Aus ATC (RADAR)
Sun 08:49:50 PM -29.3230 156.1485 40° Northeast 463 533 37,200  Level Aus ATC (RADAR)
Sun 08:50:35 PM -29.2489 156.2195 40° Northeast 463 533 37,200  Level Aus ATC (RADAR)
Sun 08:51:00 PM -29.2079 156.2587 40° Northeast 463 533 37,200  Level Aus ATC (RADAR)
Sun 08:51:35 PM -29.1494 156.3145 40° Northeast 463 533 37,200  Level Aus ATC (RADAR)
Sun 08:52:55 PM -29.0168 156.4410 40° Northeast 465 535 37,200  Level Aus ATC (RADAR)
Sun 08:53:20 PM -28.9746 156.4808 40° Northeast 469 540 37,200 -200 Level Aus ATC (RADAR)
Sun 08:53:55 PM -28.9172 156.5358 40° Northeast 465 535 37,000 -141 Descending Aus ATC (RADAR)
Sun 08:54:45 PM -28.8333 156.6152 40° Northeast 469 540 37,000 71 Level Aus ATC (RADAR)
Sun 08:55:20 PM -28.7739 156.6709 39° Northeast 472 543 37,100 150 Climbing Aus ATC (RADAR)
Sun 08:56:05 PM -28.6982 156.7423 40° Northeast 470 541 37,200 86 Climbing Aus ATC (RADAR)
Sun 08:56:30 PM -28.6554 156.7820 39° Northeast 474 545 37,200 -120 Level Aus ATC (RADAR)
Sun 08:57:45 PM -28.5292 156.9009 40° Northeast 470 541 37,000 -114 Descending Aus ATC (RADAR)
Sun 08:58:15 PM -28.4797 156.9482 40° Northeast 467 537 37,000  Level Aus ATC (RADAR)
Sun 08:58:39 PM -28.4356 156.9878 38° Northeast 475 547 37,000  Level Aus ATC (RADAR)
Sun 08:59:14 PM -28.3771 157.0429 40° Northeast 472 543 37,000  Level Aus ATC (RADAR)
Sun 08:59:49 PM -28.3188 157.0978 40° Northeast 468 539 37,000  Level Aus ATC (RADAR)
Sun 09:00:24 PM -28.2605 157.1527 40° Northeast 467 537 37,000  Level Aus ATC (RADAR)
Sun 09:01:14 PM -28.1772 157.2309 40° Northeast 466 536 37,000  Level Aus ATC (RADAR)
Sun 09:01:36 PM -28.1435 157.2623 39° Northeast 467 537 37,000  Level Aus ATC (RADAR)
Sun 09:02:44 PM -28.0243 157.3714 39° Northeast 472 543 37,000  Level Aus ATC (RADAR)
Sun 09:03:14 PM -27.9743 157.4181 40° Northeast 470 541 37,000  Level Aus ATC (RADAR)
Sun 09:03:39 PM -27.9321 157.4572 39° Northeast 469 540 37,000  Level Aus ATC (RADAR)
Sun 09:04:14 PM -27.8732 157.5117 39° Northeast 469 540 37,000  Level Aus ATC (RADAR)
Sun 09:04:54 PM -27.8065 157.5737 39° Northeast 466 536 37,000  Level Aus ATC (RADAR)
Sun 09:05:29 PM -27.7481 157.6284 40° Northeast 466 536 37,000  Level Aus ATC (RADAR)
Sun 09:06:29 PM -27.6462 157.7213 39° Northeast 468 539 37,000  Level Aus ATC (RADAR)
Sun 09:06:44 PM -27.6213 157.7447 40° Northeast 467 537 37,000  Level Aus ATC (RADAR)
Sun 09:08:09 PM -27.4766 157.8761 39° Northeast 472 543 37,000  Level Aus ATC (RADAR)
Sun 09:08:49 PM -27.4076 157.9379 39° Northeast 473 544 37,000  Level Aus ATC (RADAR)
Sun 09:09:09 PM -27.3756 157.9695 41° Northeast 469 540 37,000  Level Aus ATC (RADAR)
Sun 09:09:44 PM -27.3167 158.0238 39° Northeast 467 537 37,000  Level Aus ATC (RADAR)
Sun 09:10:19 PM -27.2587 158.0786 40° Northeast 465 535 37,000  Level Aus ATC (RADAR)
Sun 09:10:53 PM -27.1992 158.1326 39° Northeast 467 537 37,000  Level Aus ATC (RADAR)
Sun 09:11:28 PM -27.1439 158.1870 41° Northeast 459 528 37,000  Level Aus ATC (RADAR)
Sun 09:11:59 PM -27.0938 158.2325 39° Northeast 460 529 37,000  Level Aus ATC (RADAR)
Sun 09:14:23 PM -26.7909 158.4999 360° North 37,000  Level Aus ATC (Calculated)
Sun 09:14:38 PM -26.7909 158.4999 38° Northeast 37,000  Level Aus ATC (Calculated)
Sun 09:15:18 PM -26.7227 158.5599 47° Northeast 37,000  Level Aus ATC (Calculated)
Sun 09:17:00 PM -26.5731 158.7391 47° Northeast  Level Estimated
Sun 09:17:42 PM -26.4584 158.7914 119° Southeast 37,000  Level Aus ATC (Calculated)
Sun 09:18:00 PM -26.4849 158.8444 47° Northeast  Level Estimated
Sun 09:19:00 PM -26.3442 158.9285 47° Northeast  Level Estimated
Sun 09:20:00 PM -26.2563 159.0338 47° Northeast  Level Estimated
Sun 09:21:00 PM -26.1684 159.1389 47° Northeast  Level Estimated
Sun 09:22:00 PM -26.0803 159.2439 47° Northeast  Level Estimated
Sun 09:23:00 PM -25.9922 159.3487 47° Northeast  Level Estimated
Sun 09:24:00 PM -25.9040 159.4534 47° Northeast  Level Estimated
Sun 09:25:00 PM -25.8157 159.5578 47° Northeast  Level Estimated
Sun 09:25:23 PM -25.6465 159.4939 48° Northeast 37,000  Level Aus ATC (Calculated)
Sun 09:27:00 PM -25.5058 159.6646 48° Northeast  Level Estimated
Sun 09:28:00 PM -25.4187 159.7699 48° Northeast  Level Estimated
Sun 09:29:00 PM -25.3316 159.8751 48° Northeast  Level Estimated
Sun 09:30:00 PM -25.2443 159.9802 47° Northeast  Level Estimated
Sun 09:31:00 PM -25.1570 160.0851 47° Northeast  Level Estimated
Sun 09:32:00 PM -25.0696 160.1899 47° Northeast  Level Estimated
Sun 09:33:00 PM -24.9821 160.2945 47° Northeast  Level Estimated
Sun 09:34:00 PM -24.8946 160.3989 47° Northeast  Level Estimated
Sun 09:35:00 PM -24.8069 160.5033 47° Northeast  Level Estimated
Sun 09:36:00 PM -24.7193 160.6074 47° Northeast  Level Estimated
Sun 09:36:00 PM -24.4977 160.4670 37° Northeast 37,000  Level Aus ATC (Calculated)
Sun 09:36:16 PM -24.4478 160.5089 59° Northeast 37,000  Level Aus ATC (Calculated)
Sun 09:37:00 PM -24.4124 160.5733 49° Northeast  Level Estimated
Sun 09:38:00 PM -24.3000 160.6931 49° Northeast  Level Estimated
Sun 09:39:00 PM -24.2147 160.7991 49° Northeast  Level Estimated
Sun 09:40:00 PM -24.1293 160.9051 49° Northeast  Level Estimated
Sun 09:41:00 PM -24.0438 161.0109 49° Northeast  Level Estimated
Sun 09:42:00 PM -23.9582 161.1165 48° Northeast  Level Estimated
Sun 09:43:00 PM -23.8726 161.2220 48° Northeast  Level Estimated
Sun 09:44:00 PM -23.7869 161.3274 48° Northeast  Level Estimated
Sun 09:45:00 PM -23.7011 161.4327 48° Northeast  Level Estimated
Sun 09:46:00 PM -23.6153 161.5378 48° Northeast  Level Estimated
Sun 09:47:00 PM -23.5294 161.6427 48° Northeast  Level Estimated
Sun 09:48:00 PM -23.4434 161.7475 48° Northeast  Level Estimated
Sun 09:48:22 PM -23.0951 161.6253 142° Southeast 37,000  Level Aus ATC (Calculated)
Sun 09:49:00 PM -23.3573 161.8522 48° Northeast  Level Estimated
Sun 09:50:00 PM -22.9611 161.8019 51° Northeast  Level Estimated
Sun 09:50:00 PM -22.9443 161.7479 51° Northeast 37,000  Level Aus ATC (Calculated)
Sun 09:51:00 PM -22.8627 161.8564 51° Northeast  Level Estimated
Sun 09:52:00 PM -22.7811 161.9647 51° Northeast  Level Estimated
Sun 09:53:00 PM -22.6994 162.0729 51° Northeast  Level Estimated
Sun 09:54:00 PM -22.6175 162.1810 51° Northeast  Level Estimated
Sun 09:55:00 PM -22.5357 162.2889 51° Northeast  Level Estimated
Sun 09:56:00 PM -22.4537 162.3967 51° Northeast  Level Estimated
Sun 09:57:00 PM -22.3717 162.5044 51° Northeast  Level Estimated
Sun 09:58:00 PM -22.2896 162.6119 50° Northeast  Level Estimated
Sun 09:59:00 PM -22.2075 162.7194 50° Northeast  Level Estimated
Sun 10:00:00 PM -22.1252 162.8267 50° Northeast  Level Estimated
Sun 10:00:00 PM -21.8355 162.6393 53° Northeast 37,000  Level Aus ATC (Calculated)
Sun 10:01:00 PM -21.7583 162.7506 53° Northeast  Level Estimated
Sun 10:02:00 PM -21.6811 162.8618 53° Northeast  Level Estimated
Sun 10:03:00 PM -21.6037 162.9728 53° Northeast  Level Estimated
Sun 10:04:00 PM -21.5263 163.0838 53° Northeast  Level Estimated
Sun 10:05:00 PM -21.4488 163.1946 53° Northeast  Level Estimated
Sun 10:06:00 PM -21.3713 163.3053 53° Northeast  Level Estimated
Sun 10:07:00 PM -21.2936 163.4158 53° Northeast  Level Estimated
Sun 10:08:00 PM -21.2159 163.5263 53° Northeast  Level Estimated
Sun 10:09:00 PM -21.1381 163.6367 53° Northeast  Level Estimated
Sun 10:10:00 PM -21.0603 163.7469 53° Northeast  Level Estimated
Sun 10:11:00 PM -20.9824 163.8570 53° Northeast  Level Estimated
Sun 10:12:00 PM -20.9044 163.9670 53° Northeast  Level Estimated
Sun 10:13:00 PM -20.8263 164.0769 53° Northeast  Level Estimated
Sun 10:14:00 PM -20.7482 164.1867 53° Northeast  Level Estimated
Sun 10:15:00 PM -20.6700 164.2963 53° Northeast  Level Estimated
Sun 10:16:00 PM -20.5917 164.4059 53° Northeast  Level Estimated
Sun 10:17:00 PM -20.5134 164.5153 53° Northeast  Level Estimated
Sun 10:18:00 PM -20.4350 164.6246 53° Northeast  Level Estimated
Sun 10:19:00 PM -20.3565 164.7338 53° Northeast  Level Estimated
Sun 10:20:00 PM -20.2780 164.8429 53° Northeast  Level Estimated
Sun 10:21:00 PM -20.1994 164.9519 52° Northeast  Level Estimated
Sun 10:22:00 PM -20.1207 165.0608 52° Northeast  Level Estimated
Sun 10:23:00 PM -20.0419 165.1696 52° Northeast  Level Estimated
Sun 10:24:00 PM -19.9631 165.2782 52° Northeast  Level Estimated
Sun 10:25:00 PM -19.8843 165.3868 52° Northeast  Level Estimated
Sun 10:26:00 PM -19.8053 165.4952 52° Northeast  Level Estimated
Sun 10:27:00 PM -19.7263 165.6036 52° Northeast  Level Estimated
Sun 10:28:00 PM -19.6472 165.7118 52° Northeast  Level Estimated
Sun 10:29:00 PM -19.5681 165.8199 52° Northeast  Level Estimated
Sun 10:30:00 PM -19.4889 165.9279 52° Northeast  Level Estimated
Sun 10:31:00 PM -19.4096 166.0358 52° Northeast  Level Estimated
Sun 10:32:00 PM -19.3303 166.1436 52° Northeast  Level Estimated
Sun 10:33:00 PM -19.2509 166.2513 52° Northeast  Level Estimated
Sun 10:34:00 PM -19.1715 166.3589 52° Northeast  Level Estimated
Sun 10:35:00 PM -19.0919 166.4664 52° Northeast  Level Estimated
Sun 10:36:00 PM -19.0124 166.5738 52° Northeast  Level Estimated
Sun 10:37:00 PM -18.9327 166.6811 52° Northeast  Level Estimated
Sun 10:38:00 PM -18.8530 166.7883 52° Northeast  Level Estimated
Sun 10:39:00 PM -18.7733 166.8954 52° Northeast  Level Estimated
Sun 10:40:00 PM -18.6934 167.0023 52° Northeast  Level Estimated
Sun 10:41:00 PM -18.6135 167.1092 52° Northeast  Level Estimated
Sun 10:42:00 PM -18.5336 167.2160 52° Northeast  Level Estimated
Sun 10:43:00 PM -18.4536 167.3227 52° Northeast  Level Estimated
Sun 10:44:00 PM -18.3735 167.4293 52° Northeast  Level Estimated
Sun 10:45:00 PM -18.2934 167.5358 52° Northeast  Level Estimated
Sun 10:46:00 PM -18.2132 167.6421 52° Northeast  Level Estimated
Sun 10:47:00 PM -18.1330 167.7484 52° Northeast  Level Estimated
Sun 10:48:00 PM -18.0527 167.8546 52° Northeast  Level Estimated
Sun 10:49:00 PM -17.9723 167.9607 51° Northeast  Level Estimated
Sun 10:50:00 PM -17.8919 168.0667 51° Northeast  Level Estimated
Sun 10:51:00 PM -17.8114 168.1726 51° Northeast  Level Estimated
Sun 10:52:00 PM -17.7309 168.2784 51° Northeast  Level Estimated
Sun 10:53:00 PM -17.6993 168.3198 51° Northeast  Level Estimated
Sun 10:54:00 PM -17.6993 168.3198 143° Southeast  Level Estimated
Sun 10:55:00 PM -17.6993 168.3198 37° Northeast  Level Estimated
Sun 10:56:00 PM -17.6993 168.3198 143° Southeast  Level Estimated
Sun 10:57:00 PM -17.6993 168.3198 37° Northeast  Level Estimated
Sun 10:58:00 PM -17.6993 168.3198 143° Southeast  Level Estimated
Sun 10:59:00 PM -17.6993 168.3198 37° Northeast  Level Estimated
Sun 11:00:00 PM -17.6993 168.3198 143° Southeast  Level Estimated
Sun 11:01:00 PM -17.6993 168.3198 37° Northeast  Level Estimated
Sun 11:02:00 PM -17.6993 168.3198 143° Southeast  Level Estimated
Sun 11:03:00 PM -17.6993 168.3198 37° Northeast  Level Estimated
Sun 11:04:00 PM -17.6993 168.3198 143° Southeast  Level Estimated
Sun 11:05:00 PM -17.6993 168.3198 37° Northeast  Level Estimated
Sun 11:06:00 PM -17.6993 168.3198 143° Southeast  Level Estimated
Sun 11:07:00 PM -17.6993 168.3198 37° Northeast  Level Estimated
Sun 11:08:00 PM -17.6993 168.3198 143° Southeast  Level Estimated
Sun 11:09:00 PM -17.6993 168.3198 37° Northeast  Level Estimated
Sun 11:10:00 PM -17.6993 168.3198 143° Southeast  Level Estimated

Login

Don't have an account? Register now (free) for customized features, flight alerts, and more!